Time;durP1;ratioP1;P1;durP2;ratioP2;P2;SDS_P1;SDS_P2;PMS_P1;PMS_P2;Temp;Humidity;BMP_temperature;BMP_pressure;BME280_temperature;BME280_humidity;BME280_pressure;Samples;Min_cycle;Max_cycle;Signal;HPM_P1;HPM_P2
2021/05/11 00:00:36;;;;;;;8.30;3.03;;;13.90;97.90;;;;;;4443736;32;20534;-68
2021/05/11 00:03:03;;;;;;;12.77;3.30;;;13.90;97.90;;;;;;4449412;32;20318;-65
2021/05/11 00:05:31;;;;;;;11.33;3.97;;;13.90;97.90;;;;;;4437145;32;20155;-66
2021/05/11 00:07:58;;;;;;;9.40;3.37;;;13.90;98.00;;;;;;4439616;32;20154;-66
2021/05/11 00:10:36;;;;;;;9.93;3.37;;;13.90;98.10;;;;;;4439705;32;20250;-67
2021/05/11 00:13:13;;;;;;;7.33;2.80;;;13.90;98.00;;;;;;4428507;32;20210;-66
2021/05/11 00:15:53;;;;;;;12.23;3.67;;;13.90;97.90;;;;;;4431581;32;20254;-67
2021/05/11 00:18:32;;;;;;;10.43;3.23;;;13.90;98.00;;;;;;4428141;32;20205;-67
2021/05/11 00:21:00;;;;;;;10.27;4.00;;;13.80;98.10;;;;;;4427978;32;20600;-67
2021/05/11 00:23:31;;;;;;;11.97;3.67;;;13.80;98.10;;;;;;4430726;32;20255;-67
2021/05/11 00:26:03;;;;;;;9.43;2.90;;;13.80;98.20;;;;;;4429720;32;20221;-66
2021/05/11 00:28:32;;;;;;;10.87;3.87;;;13.80;98.30;;;;;;4428530;32;20197;-66
2021/05/11 00:30:59;;;;;;;10.03;3.67;;;13.80;98.40;;;;;;4430316;32;20206;-66
2021/05/11 00:33:32;;;;;;;9.43;3.30;;;13.80;98.30;;;;;;4434157;32;20175;-67
2021/05/11 00:36:01;;;;;;;13.33;3.30;;;13.80;98.20;;;;;;4435427;32;20241;-66
2021/05/11 00:38:28;;;;;;;12.37;3.33;;;13.80;98.20;;;;;;4433725;32;20525;-68
2021/05/11 00:40:54;;;;;;;10.33;3.33;;;13.80;98.10;;;;;;4436238;32;20327;-67
2021/05/11 00:43:32;;;;;;;13.67;3.87;;;13.90;98.00;;;;;;4432138;32;20257;-67
2021/05/11 00:45:59;;;;;;;10.43;3.07;;;13.80;97.80;;;;;;4430719;32;20250;-66
2021/05/11 00:48:25;;;;;;;10.50;3.17;;;13.90;97.70;;;;;;4438648;32;20166;-67
2021/05/11 00:50:52;;;;;;;12.87;4.13;;;13.80;97.80;;;;;;4438860;32;20229;-68
2021/05/11 00:53:19;;;;;;;10.30;3.17;;;13.80;97.60;;;;;;4446720;32;20210;-67
2021/05/11 00:55:45;;;;;;;9.13;3.43;;;13.90;97.50;;;;;;4444501;32;20173;-67
2021/05/11 00:58:13;;;;;;;13.53;4.00;;;13.80;97.50;;;;;;4442603;32;20601;-68
2021/05/11 01:00:39;;;;;;;9.87;3.80;;;13.70;97.60;;;;;;4446535;32;20264;-66
2021/05/11 01:03:06;;;;;;;13.03;4.03;;;13.70;97.50;;;;;;4451748;32;20178;-67
2021/05/11 01:05:32;;;;;;;10.53;3.60;;;13.80;97.40;;;;;;4445011;32;20257;-68
2021/05/11 01:07:59;;;;;;;9.53;3.80;;;13.70;97.40;;;;;;4436811;32;20184;-66
2021/05/11 01:10:26;;;;;;;9.17;3.57;;;13.70;97.40;;;;;;4435912;32;20249;-65
2021/05/11 01:12:52;;;;;;;8.57;3.30;;;13.70;97.30;;;;;;4438230;32;20689;-67
2021/05/11 01:15:18;;;;;;;8.53;4.13;;;13.70;97.60;;;;;;4437315;32;20271;-68
2021/05/11 01:17:50;;;;;;;12.17;4.00;;;13.70;97.50;;;;;;4440629;32;20158;-67
2021/05/11 01:20:27;;;;;;;10.17;3.47;;;13.70;97.40;;;;;;4443358;32;20211;-67
2021/05/11 01:23:15;;;;;;;14.27;5.43;;;13.70;97.20;;;;;;4445912;32;20587;-68
2021/05/11 01:25:43;;;;;;;11.33;3.70;;;13.80;96.90;;;;;;4441191;32;20341;-66
2021/05/11 01:28:16;;;;;;;9.00;3.40;;;13.80;96.90;;;;;;4439988;32;20468;-67
2021/05/11 01:31:05;;;;;;;7.10;3.53;;;13.80;97.20;;;;;;4441544;32;20211;-67
2021/05/11 01:50:10;;;;;;;7.97;3.03;;;13.70;96.40;;;;;;4386837;32;20605;-67
2021/05/11 01:52:53;;;;;;;18.23;3.77;;;13.70;96.00;;;;;;4386901;32;20159;-66
2021/05/11 02:22:52;;;;;;;7.73;2.60;;;13.60;96.70;;;;;;4334647;33;20253;-65
2021/05/11 02:25:20;;;;;;;7.83;2.80;;;13.60;96.30;;;;;;4329716;33;20161;-66
2021/05/11 02:27:47;;;;;;;7.13;2.20;;;13.60;96.30;;;;;;4368426;32;20233;-68
2021/05/11 02:30:15;;;;;;;9.93;2.83;;;13.50;96.40;;;;;;4384635;32;20515;-68
2021/05/11 02:32:42;;;;;;;7.57;2.80;;;13.50;96.40;;;;;;4381646;32;20271;-65
2021/05/11 02:35:10;;;;;;;8.77;2.83;;;13.60;96.40;;;;;;4425237;32;20196;-66
2021/05/11 02:37:36;;;;;;;8.40;3.33;;;13.50;96.50;;;;;;4446900;32;20152;-67
2021/05/11 02:40:04;;;;;;;7.77;2.77;;;13.50;96.50;;;;;;4444949;32;20213;-67
2021/05/11 02:42:30;;;;;;;7.13;2.47;;;13.50;96.90;;;;;;4437717;32;20575;-67
2021/05/11 02:44:58;;;;;;;9.30;2.93;;;13.50;97.20;;;;;;4445571;32;20205;-66
2021/05/11 02:47:29;;;;;;;13.43;3.20;;;13.50;97.20;;;;;;4442568;32;20202;-67
2021/05/11 02:49:56;;;;;;;8.30;2.70;;;13.40;97.20;;;;;;4448719;32;20213;-67
2021/05/11 02:52:22;;;;;;;9.33;2.80;;;13.40;97.20;;;;;;4443314;32;20209;-65
2021/05/11 02:54:48;;;;;;;6.70;2.40;;;13.40;97.50;;;;;;4440509;32;20212;-65
2021/05/11 02:57:15;;;;;;;6.17;2.60;;;13.30;97.50;;;;;;4441902;32;20235;-66
2021/05/11 02:59:41;;;;;;;11.50;3.33;;;13.30;97.90;;;;;;4451679;32;20547;-65
2021/05/11 03:02:09;;;;;;;9.40;3.40;;;13.30;98.00;;;;;;4447209;32;20184;-66
2021/05/11 03:04:36;;;;;;;7.63;3.13;;;13.30;97.90;;;;;;4452346;32;20177;-67
2021/05/11 03:07:02;;;;;;;11.90;2.67;;;13.30;98.00;;;;;;4450923;32;20195;-67
2021/05/11 03:09:28;;;;;;;9.50;2.77;;;13.30;98.00;;;;;;4447952;32;20169;-68
2021/05/11 03:11:56;;;;;;;13.17;3.30;;;13.30;98.20;;;;;;4448025;32;20226;-65
2021/05/11 03:14:23;;;;;;;11.23;3.73;;;13.20;98.30;;;;;;4443874;32;20219;-65
2021/05/11 03:16:52;;;;;;;6.23;3.03;;;13.20;98.30;;;;;;4440557;32;20159;-67
2021/05/11 03:19:19;;;;;;;9.70;3.67;;;13.30;98.40;;;;;;4448515;32;20171;-65
2021/05/11 03:21:45;;;;;;;12.30;4.10;;;13.20;98.70;;;;;;4450477;32;20215;-66
2021/05/11 03:24:11;;;;;;;7.60;3.47;;;13.10;99.00;;;;;;4448898;32;20213;-66
2021/05/11 03:26:40;;;;;;;14.00;3.70;;;13.10;99.00;;;;;;4451189;32;20178;-66
2021/05/11 03:29:06;;;;;;;9.87;3.10;;;13.10;99.10;;;;;;4445498;32;20575;-66
2021/05/11 03:31:33;;;;;;;13.83;3.90;;;13.10;99.10;;;;;;4445241;32;20222;-66
2021/05/11 03:33:59;;;;;;;11.60;3.83;;;13.10;99.10;;;;;;4437546;32;20491;-67
2021/05/11 03:36:26;;;;;;;9.40;3.70;;;13.00;99.60;;;;;;4441266;32;20227;-64
2021/05/11 03:38:54;;;;;;;7.53;3.03;;;13.00;99.40;;;;;;4442921;32;20223;-67
2021/05/11 03:41:26;;;;;;;13.43;4.13;;;13.00;99.70;;;;;;4452854;32;20820;-68
2021/05/11 03:43:56;;;;;;;10.70;3.67;;;12.90;99.80;;;;;;4447210;32;20215;-67
2021/05/11 03:46:22;;;;;;;7.00;3.10;;;12.90;99.80;;;;;;4448979;32;20225;-67
2021/05/11 03:48:52;;;;;;;12.77;3.77;;;12.90;99.70;;;;;;4442595;32;20232;-67
2021/05/11 03:51:18;;;;;;;11.50;3.83;;;13.00;99.80;;;;;;4442920;32;20253;-67
2021/05/11 03:53:45;;;;;;;9.13;3.50;;;13.00;99.80;;;;;;4444000;32;20182;-69
2021/05/11 03:56:12;;;;;;;10.40;3.27;;;13.00;99.90;;;;;;4444762;32;20266;-67
2021/05/11 03:58:39;;;;;;;8.33;4.27;;;13.10;99.90;;;;;;4439025;32;20519;-67
2021/05/11 04:01:05;;;;;;;7.30;4.00;;;13.10;99.90;;;;;;4448432;32;20154;-67
2021/05/11 04:03:32;;;;;;;20.13;4.87;;;13.10;99.90;;;;;;4448762;32;20186;-66
2021/05/11 04:05:59;;;;;;;8.63;3.67;;;13.10;99.90;;;;;;4436605;32;20657;-64
2021/05/11 04:08:38;;;;;;;9.23;3.60;;;13.10;99.90;;;;;;4438888;32;20210;-65
2021/05/11 04:11:15;;;;;;;12.40;4.30;;;13.20;99.90;;;;;;4448790;32;20169;-65
2021/05/11 04:13:58;;;;;;;10.53;3.70;;;13.20;99.90;;;;;;4447889;32;20190;-67
2021/05/11 04:16:26;;;;;;;11.90;3.90;;;13.20;99.90;;;;;;4437631;32;20570;-67
2021/05/11 04:18:53;;;;;;;11.00;4.20;;;13.20;99.90;;;;;;4449967;32;20154;-66
2021/05/11 04:21:20;;;;;;;9.07;3.40;;;13.20;99.90;;;;;;4440858;32;20206;-65
2021/05/11 04:23:47;;;;;;;8.23;3.33;;;13.20;99.90;;;;;;4450801;32;20574;-66
2021/05/11 04:26:14;;;;;;;8.37;3.17;;;13.20;99.90;;;;;;4443006;32;20210;-66
2021/05/11 04:28:41;;;;;;;7.90;3.83;;;13.20;99.90;;;;;;4449544;32;20170;-66
2021/05/11 04:31:09;;;;;;;15.93;3.97;;;13.20;99.90;;;;;;4442165;32;20221;-66
2021/05/11 04:33:36;;;;;;;8.40;3.47;;;13.20;99.90;;;;;;4441014;32;20216;-66
2021/05/11 04:36:03;;;;;;;9.33;3.40;;;13.30;99.90;;;;;;4444852;32;20291;-66
2021/05/11 04:38:34;;;;;;;11.33;3.83;;;13.30;99.90;;;;;;4449144;32;20233;-66
2021/05/11 04:41:00;;;;;;;8.77;3.43;;;13.30;99.90;;;;;;4440195;32;20271;-65
2021/05/11 04:43:29;;;;;;;7.73;3.70;;;13.30;99.90;;;;;;4442364;32;20188;-66
2021/05/11 04:46:06;;;;;;;13.10;4.37;;;13.30;99.90;;;;;;4450454;32;20559;-67
2021/05/11 04:48:35;;;;;;;12.70;4.33;;;13.20;99.90;;;;;;4449436;32;20567;-67
2021/05/11 04:51:01;;;;;;;9.57;4.00;;;13.20;99.90;;;;;;4443633;32;20227;-65
2021/05/11 04:53:29;;;;;;;9.70;4.23;;;13.20;99.90;;;;;;4441844;32;20232;-66
2021/05/11 04:55:56;;;;;;;10.60;4.30;;;13.20;99.90;;;;;;4444585;32;20159;-65
2021/05/11 04:58:22;;;;;;;9.47;4.07;;;13.30;99.90;;;;;;4447669;32;20182;-65
2021/05/11 05:00:50;;;;;;;10.30;3.97;;;13.30;99.90;;;;;;4440940;32;20249;-66
2021/05/11 05:03:24;;;;;;;9.90;4.33;;;13.40;99.90;;;;;;4447397;32;20147;-67
2021/05/11 05:05:51;;;;;;;9.43;3.80;;;13.40;99.90;;;;;;4443021;32;20227;-68
2021/05/11 05:08:17;;;;;;;10.73;4.17;;;13.40;99.90;;;;;;4442689;32;20226;-65
2021/05/11 05:10:43;;;;;;;7.00;3.37;;;13.40;99.90;;;;;;4441839;32;20649;-66
2021/05/11 05:13:09;;;;;;;16.10;4.90;;;13.50;99.90;;;;;;4439255;32;20197;-66
2021/05/11 05:15:36;;;;;;;11.10;4.60;;;13.50;99.90;;;;;;4441308;32;20159;-66
2021/05/11 05:18:03;;;;;;;15.00;4.40;;;13.30;99.90;;;;;;4440994;32;20282;-64
2021/05/11 05:20:29;;;;;;;10.60;4.10;;;13.30;99.90;;;;;;4441319;32;20218;-65
2021/05/11 05:22:55;;;;;;;14.17;4.93;;;13.40;99.90;;;;;;4406170;32;20263;-67
2021/05/11 05:25:25;;;;;;;13.80;4.90;;;13.60;99.90;;;;;;4402026;32;20246;-68
2021/05/11 05:27:57;;;;;;;7.70;3.97;;;13.80;99.90;;;;;;4403951;32;20187;-65
2021/05/11 05:30:24;;;;;;;12.00;5.30;;;14.00;99.90;;;;;;4404784;32;20152;-67
2021/05/11 05:32:53;;;;;;;13.53;5.30;;;14.10;99.90;;;;;;4402632;32;20463;-67
2021/05/11 05:35:20;;;;;;;17.33;6.83;;;14.00;99.90;;;;;;4404272;32;20148;-66
2021/05/11 05:37:47;;;;;;;24.33;5.97;;;14.10;99.90;;;;;;4404328;32;20163;-67
2021/05/11 05:40:18;;;;;;;11.80;5.90;;;14.00;99.90;;;;;;4404836;32;20175;-67
2021/05/11 05:42:45;;;;;;;15.47;6.33;;;14.20;99.90;;;;;;4396380;32;20223;-66
2021/05/11 05:45:12;;;;;;;11.13;5.60;;;14.20;99.90;;;;;;4405718;32;20246;-66
2021/05/11 05:47:50;;;;;;;13.53;6.73;;;14.50;99.50;;;;;;4408572;32;20224;-65
2021/05/11 05:50:17;;;;;;;16.03;6.63;;;14.50;99.10;;;;;;4405689;32;20466;-67
2021/05/11 05:52:44;;;;;;;14.03;5.97;;;14.20;99.80;;;;;;4405882;32;20295;-66
2021/05/11 05:55:12;;;;;;;11.97;5.23;;;14.40;99.60;;;;;;4406997;32;20194;-69
2021/05/11 05:57:38;;;;;;;14.60;6.50;;;14.60;99.50;;;;;;4406365;32;20600;-65
2021/05/11 06:00:06;;;;;;;10.17;6.37;;;14.50;99.40;;;;;;4406556;32;20615;-67
2021/05/11 06:02:34;;;;;;;13.53;6.40;;;14.70;99.10;;;;;;4405877;32;20254;-66
2021/05/11 06:05:01;;;;;;;13.70;5.33;;;15.00;98.70;;;;;;4406752;32;20599;-65
2021/05/11 06:07:28;;;;;;;15.33;6.10;;;15.10;98.50;;;;;;4407474;32;20178;-63
2021/05/11 06:09:55;;;;;;;14.63;6.20;;;15.20;98.00;;;;;;4406425;32;20151;-65
2021/05/11 06:12:28;;;;;;;10.03;5.17;;;15.20;98.00;;;;;;4406236;32;20221;-66
2021/05/11 06:17:01;;;;;;;12.27;5.67;;;15.40;97.80;;;;;;4406271;32;20261;-66
2021/05/11 06:17:46;;;;;;;22.77;6.97;;;15.70;97.10;;;;;;4405875;32;20199;-67
2021/05/11 06:20:14;;;;;;;24.53;6.93;;;16.10;96.70;;;;;;4406750;32;20444;-65
2021/05/11 06:22:40;;;;;;;11.23;5.50;;;16.60;95.50;;;;;;4405506;32;20179;-66
2021/05/11 06:25:10;;;;;;;12.00;4.90;;;16.90;95.00;;;;;;4407461;32;20556;-65
2021/05/11 06:27:36;;;;;;;12.20;5.10;;;17.30;94.50;;;;;;4408353;32;20503;-65
2021/05/11 06:30:03;;;;;;;8.70;5.33;;;17.30;93.40;;;;;;4407076;32;20252;-66
2021/05/11 06:32:32;;;;;;;15.67;5.60;;;17.20;93.60;;;;;;4402306;32;20261;-67
2021/05/11 06:35:02;;;;;;;11.73;5.90;;;17.10;93.90;;;;;;4405328;32;20273;-65
2021/05/11 06:37:28;;;;;;;10.70;5.00;;;17.20;94.10;;;;;;4407895;32;20151;-66
2021/05/11 06:39:58;;;;;;;10.10;5.43;;;17.30;93.90;;;;;;4407131;32;20206;-66
2021/05/11 06:42:28;;;;;;;13.97;6.10;;;17.30;93.70;;;;;;4405540;32;20587;-66
2021/05/11 06:45:07;;;;;;;16.47;6.13;;;17.40;93.60;;;;;;4405626;32;20152;-68
2021/05/11 06:53:10;;;;;;;15.33;6.40;;;17.70;93.10;;;;;;4399911;32;20219;-65
2021/05/11 06:55:39;;;;;;;18.43;6.50;;;17.50;93.40;;;;;;4406708;32;20591;-68
2021/05/11 06:58:06;;;;;;;17.00;6.07;;;17.40;93.70;;;;;;4404713;32;20594;-67
2021/05/11 07:00:33;;;;;;;13.07;6.03;;;17.30;93.80;;;;;;4406694;32;20271;-66
2021/05/11 07:03:00;;;;;;;13.13;6.57;;;17.30;94.00;;;;;;4406954;32;20895;-67
2021/05/11 07:05:30;;;;;;;17.73;6.60;;;17.30;94.10;;;;;;4406690;32;20171;-65
2021/05/11 07:08:03;;;;;;;12.67;5.17;;;17.40;94.30;;;;;;4406614;32;20606;-66
2021/05/11 07:10:34;;;;;;;10.47;6.30;;;17.50;93.80;;;;;;4406643;32;20201;-66
2021/05/11 07:13:09;;;;;;;13.50;6.30;;;17.70;93.80;;;;;;4400049;32;20499;-64
2021/05/11 07:15:36;;;;;;;13.00;6.50;;;17.90;93.80;;;;;;4405936;32;20531;-65
2021/05/11 07:18:06;;;;;;;12.50;6.27;;;18.10;92.90;;;;;;4405019;32;20226;-66
2021/05/11 07:20:33;;;;;;;12.57;7.03;;;18.10;92.90;;;;;;4405329;32;20163;-68
2021/05/11 07:22:59;;;;;;;13.30;7.23;;;17.90;92.60;;;;;;4405147;32;20152;-65
2021/05/11 07:25:31;;;;;;;16.07;6.43;;;18.20;92.90;;;;;;4390372;32;20499;-67
2021/05/11 07:30:45;;;;;;;10.17;6.37;;;19.00;91.30;;;;;;4344711;33;20168;-69
2021/05/11 07:33:12;;;;;;;15.50;6.80;;;19.30;90.50;;;;;;4344839;33;20208;-67
2021/05/11 07:35:40;;;;;;;12.90;6.23;;;19.90;88.70;;;;;;4333398;33;20521;-67
2021/05/11 07:38:08;;;;;;;12.87;6.67;;;20.20;87.60;;;;;;4330130;33;20176;-66
2021/05/11 07:40:34;;;;;;;11.80;6.17;;;20.10;87.20;;;;;;4330624;33;20631;-67
2021/05/11 07:43:01;;;;;;;13.80;6.63;;;20.10;87.10;;;;;;4330919;33;20216;-68
2021/05/11 07:45:41;;;;;;;14.17;6.77;;;20.60;87.00;;;;;;4337634;33;20221;-67
2021/05/11 07:48:39;;;;;;;13.83;6.07;;;21.00;84.40;;;;;;4344846;33;20297;-66
2021/05/11 07:51:35;;;;;;;21.53;7.33;;;21.70;82.80;;;;;;4335670;33;20177;-68
2021/05/11 08:02:42;;;;;;;12.27;6.20;;;20.80;84.10;;;;;;4329924;33;20187;-64
2021/05/11 08:05:15;;;;;;;12.53;6.67;;;20.10;86.50;;;;;;4340548;33;20267;-66
2021/05/11 08:10:47;;;;;;;14.40;6.27;;;19.60;90.00;;;;;;4390836;32;20174;-66
2021/05/11 08:16:01;;;;;;;12.40;6.37;;;19.00;90.90;;;;;;4378043;32;20522;-66
2021/05/11 08:18:36;;;;;;;12.57;6.57;;;19.20;91.20;;;;;;4377620;32;20253;-67
2021/05/11 08:29:34;;;;;;;16.27;7.10;;;19.20;90.60;;;;;;4382323;32;20172;-67
2021/05/11 08:32:00;;;;;;;16.93;7.07;;;19.10;91.20;;;;;;4363186;32;20596;-66
2021/05/11 08:34:27;;;;;;;15.70;6.90;;;19.00;91.10;;;;;;4376376;32;20164;-66
2021/05/11 08:36:57;;;;;;;11.93;6.33;;;19.10;91.60;;;;;;4378293;32;20187;-66
2021/05/11 08:39:23;;;;;;;14.90;8.53;;;19.20;91.10;;;;;;4375923;32;20174;-67
2021/05/11 08:41:50;;;;;;;15.20;8.43;;;18.70;92.00;;;;;;4375787;32;20198;-66
2021/05/11 08:44:20;;;;;;;17.27;7.63;;;18.50;93.00;;;;;;4375808;32;20149;-67
2021/05/11 08:46:46;;;;;;;15.53;7.63;;;18.70;92.20;;;;;;4382684;32;20487;-67
2021/05/11 08:49:14;;;;;;;15.83;7.53;;;18.90;91.80;;;;;;4390526;32;20557;-67
2021/05/11 08:51:53;;;;;;;11.80;7.33;;;19.10;91.70;;;;;;4385831;32;20306;-68
2021/05/11 09:08:49;;;;;;;12.87;7.67;;;18.40;93.00;;;;;;4242259;33;20206;-66
2021/05/11 09:25:21;;;;;;;21.30;8.47;;;18.90;91.80;;;;;;4201021;34;20776;-66
2021/05/11 09:27:57;;;;;;;18.60;8.87;;;18.90;92.70;;;;;;4200464;34;20164;-67
2021/05/11 09:30:38;;;;;;;12.77;8.47;;;18.80;93.20;;;;;;4207537;34;20555;-66
2021/05/11 09:33:21;;;;;;;15.90;8.50;;;18.50;94.00;;;;;;4228940;34;20179;-67
2021/05/11 09:59:00;;;;;;;17.47;11.00;;;17.80;97.00;;;;;;4378297;32;20179;-66
2021/05/11 10:37:07;;;;;;;22.43;16.50;;;17.00;99.90;;;;;;4392921;32;20170;-67
2021/05/11 10:40:11;;;;;;;22.17;16.40;;;17.20;99.90;;;;;;4384702;32;20546;-67
2021/05/11 10:48:18;;;;;;;22.93;15.30;;;18.10;99.90;;;;;;4347036;32;20178;-68
2021/05/11 10:50:47;;;;;;;21.87;14.37;;;18.20;98.60;;;;;;4346980;33;20224;-68
2021/05/11 10:53:44;;;;;;;17.47;12.63;;;18.20;98.70;;;;;;4346056;33;20251;-68
2021/05/11 10:56:53;;;;;;;18.23;14.27;;;18.40;97.80;;;;;;4301276;33;20186;-68
2021/05/11 11:02:25;;;;;;;19.60;11.87;;;18.60;97.10;;;;;;4299577;33;20225;-67
2021/05/11 11:04:52;;;;;;;20.63;12.67;;;18.80;96.30;;;;;;4301644;33;20601;-67
2021/05/11 11:07:18;;;;;;;18.13;12.67;;;19.40;96.10;;;;;;4301860;33;20534;-67
2021/05/11 11:09:59;;;;;;;20.33;13.57;;;19.80;94.50;;;;;;4305504;33;20204;-67
2021/05/11 11:12:34;;;;;;;19.33;12.30;;;20.20;93.50;;;;;;4315812;33;20172;-67
2021/05/11 11:15:04;;;;;;;17.27;11.37;;;20.60;92.80;;;;;;4302619;33;20162;-67
2021/05/11 11:17:39;;;;;;;17.17;10.90;;;20.80;91.30;;;;;;4302552;33;20166;-67
2021/05/11 11:20:09;;;;;;;13.77;9.97;;;20.80;91.30;;;;;;4305723;33;20183;-67
2021/05/11 11:25:21;;;;;;;17.90;9.83;;;21.40;88.90;;;;;;4345895;33;20184;-66
2021/05/11 11:27:48;;;;;;;13.03;8.40;;;21.30;86.10;;;;;;4344813;33;20184;-67
2021/05/11 11:30:19;;;;;;;11.27;6.30;;;20.90;87.40;;;;;;4345007;33;20169;-68
2021/05/11 11:32:48;;;;;;;13.60;8.00;;;20.80;88.00;;;;;;4361512;32;20194;-68
2021/05/11 11:35:15;;;;;;;11.00;7.23;;;20.70;87.40;;;;;;4391675;32;20202;-67
2021/05/11 11:37:42;;;;;;;12.50;7.27;;;20.30;86.50;;;;;;4389025;32;20164;-67
2021/05/11 11:40:11;;;;;;;11.73;7.73;;;19.90;89.00;;;;;;4382141;32;20470;-68
2021/05/11 11:42:40;;;;;;;11.80;7.93;;;19.80;90.10;;;;;;4381195;32;20160;-68
2021/05/11 11:45:09;;;;;;;17.53;8.23;;;19.70;90.30;;;;;;4376408;32;20148;-67
2021/05/11 11:47:49;;;;;;;14.43;7.87;;;19.60;90.70;;;;;;4376563;32;20157;-68
2021/05/11 11:50:16;;;;;;;11.43;7.50;;;19.50;91.10;;;;;;4378220;32;20643;-67
2021/05/11 11:52:48;;;;;;;11.10;7.73;;;19.30;91.40;;;;;;4376251;32;20153;-68
2021/05/11 11:55:33;;;;;;;11.13;6.73;;;19.10;90.60;;;;;;4376453;32;20166;-68
2021/05/11 11:58:01;;;;;;;11.53;7.30;;;19.00;91.30;;;;;;4377012;32;20156;-68
2021/05/11 12:00:29;;;;;;;10.83;7.00;;;18.70;91.90;;;;;;4376113;32;20163;-67
2021/05/11 12:02:59;;;;;;;11.90;8.03;;;18.60;92.00;;;;;;4376583;32;20171;-68
2021/05/11 12:05:29;;;;;;;12.40;7.73;;;18.40;92.90;;;;;;4376298;32;20141;-67
2021/05/11 12:08:02;;;;;;;18.87;8.67;;;18.30;93.50;;;;;;4376164;32;20622;-68
2021/05/11 12:10:29;;;;;;;13.23;7.90;;;18.20;92.60;;;;;;4376400;32;20171;-68
2021/05/11 12:12:56;;;;;;;14.40;8.23;;;18.10;92.40;;;;;;4377587;32;20152;-68
2021/05/11 12:15:24;;;;;;;13.57;7.80;;;18.10;92.30;;;;;;4376039;32;20179;-67
2021/05/11 12:18:02;;;;;;;11.43;7.47;;;18.10;92.90;;;;;;4376913;32;20626;-66
2021/05/11 12:20:29;;;;;;;12.23;7.73;;;18.00;93.10;;;;;;4375684;32;20221;-67
2021/05/11 12:23:07;;;;;;;12.23;8.20;;;17.70;94.00;;;;;;4388123;32;20496;-67
2021/05/11 12:25:33;;;;;;;17.63;9.53;;;17.30;94.80;;;;;;4390981;32;20201;-67
2021/05/11 12:28:00;;;;;;;16.63;8.97;;;17.00;96.30;;;;;;4391216;32;20187;-68
2021/05/11 12:30:37;;;;;;;14.43;8.80;;;16.70;97.70;;;;;;4391357;32;20579;-69
2021/05/11 12:33:09;;;;;;;16.87;8.67;;;16.50;98.20;;;;;;4388282;32;20224;-68
2021/05/11 12:35:38;;;;;;;18.37;9.70;;;16.40;98.80;;;;;;4391088;32;20549;-67
2021/05/11 12:38:18;;;;;;;12.60;8.77;;;16.40;99.10;;;;;;4391216;32;20156;-67
2021/05/11 12:40:52;;;;;;;22.03;9.67;;;16.40;99.60;;;;;;4393376;32;20179;-68
2021/05/11 12:43:37;;;;;;;16.90;10.87;;;16.40;99.90;;;;;;4379585;32;20157;-68
2021/05/11 12:46:15;;;;;;;21.10;10.27;;;16.50;99.90;;;;;;4375857;32;20164;-67
2021/05/11 12:48:54;;;;;;;14.77;9.57;;;16.50;99.90;;;;;;4375658;32;20153;-67
2021/05/11 12:51:33;;;;;;;17.30;9.40;;;16.70;99.90;;;;;;4384495;32;20156;-69
2021/05/11 12:54:04;;;;;;;17.77;9.87;;;16.80;99.90;;;;;;4389644;32;20152;-69
2021/05/11 12:56:53;;;;;;;21.63;11.23;;;16.90;99.90;;;;;;4377706;32;20285;-68
2021/05/11 12:59:30;;;;;;;20.13;12.00;;;16.80;99.90;;;;;;4375156;32;20476;-69
2021/05/11 13:02:03;;;;;;;16.10;10.80;;;16.80;99.90;;;;;;4376943;32;20152;-65
2021/05/11 13:26:42;;;;;;;21.53;12.20;;;17.20;99.90;;;;;;4375184;32;20219;-68
2021/05/11 13:29:15;;;;;;;19.70;12.63;;;17.30;99.90;;;;;;4379793;32;20643;-68
2021/05/11 13:31:46;;;;;;;18.17;12.40;;;17.40;99.90;;;;;;4375169;32;20164;-69
2021/05/11 13:34:13;;;;;;;17.50;12.77;;;17.30;99.90;;;;;;4385040;32;20191;-68
2021/05/11 13:36:41;;;;;;;16.33;12.97;;;17.20;99.90;;;;;;4384999;32;20160;-66
2021/05/11 13:39:12;;;;;;;20.50;13.43;;;17.00;99.90;;;;;;4381658;32;20516;-67
2021/05/11 13:41:41;;;;;;;18.23;13.20;;;16.80;99.90;;;;;;4380768;32;20169;-68
2021/05/11 13:44:07;;;;;;;23.37;13.00;;;16.60;99.90;;;;;;4375016;32;20164;-68
2021/05/11 13:46:36;;;;;;;18.77;12.63;;;16.60;99.90;;;;;;4375265;32;20240;-69
2021/05/11 13:49:03;;;;;;;19.00;12.67;;;16.60;99.90;;;;;;4375635;32;20531;-68
2021/05/11 13:51:31;;;;;;;23.70;13.23;;;16.60;99.90;;;;;;4385151;32;20356;-68
2021/05/11 13:54:00;;;;;;;19.50;12.50;;;16.60;99.90;;;;;;4382200;32;20245;-68
2021/05/11 13:56:36;;;;;;;21.50;13.13;;;16.60;99.90;;;;;;4375474;32;20524;-67
2021/05/11 14:02:03;;;;;;;19.70;11.80;;;16.60;99.90;;;;;;4388382;32;20186;-68
2021/05/11 14:04:29;;;;;;;18.03;11.60;;;16.60;99.90;;;;;;4389844;32;20182;-68
2021/05/11 14:06:57;;;;;;;17.93;11.77;;;16.60;99.90;;;;;;4391990;32;20580;-67
2021/05/11 14:09:24;;;;;;;18.87;10.83;;;16.60;99.90;;;;;;4392443;32;20156;-68
2021/05/11 14:11:50;;;;;;;13.87;10.90;;;16.50;99.90;;;;;;4391695;32;20164;-68
2021/05/11 14:14:17;;;;;;;16.43;11.43;;;16.50;99.90;;;;;;4385490;32;20160;-68
2021/05/11 14:16:44;;;;;;;16.63;11.63;;;16.50;99.90;;;;;;4394180;32;20198;-68
2021/05/11 14:19:11;;;;;;;16.07;10.30;;;16.50;99.90;;;;;;4392496;32;20175;-68
2021/05/11 14:21:38;;;;;;;14.67;10.23;;;16.60;99.90;;;;;;4391827;32;20198;-67
2021/05/11 14:24:06;;;;;;;16.33;10.20;;;16.70;99.90;;;;;;4392338;32;20505;-69
2021/05/11 14:26:32;;;;;;;22.57;11.30;;;16.90;99.90;;;;;;4391989;32;20526;-69
2021/05/11 14:28:59;;;;;;;13.93;9.87;;;17.10;99.90;;;;;;4377654;32;20209;-68
2021/05/11 14:31:26;;;;;;;18.40;10.80;;;17.20;99.90;;;;;;4382930;32;20176;-68
2021/05/11 14:33:53;;;;;;;16.47;10.53;;;17.20;99.90;;;;;;4391863;32;20538;-69
2021/05/11 14:36:19;;;;;;;13.43;8.53;;;17.30;99.90;;;;;;4392490;32;20180;-69
2021/05/11 14:38:46;;;;;;;14.90;9.73;;;17.50;99.90;;;;;;4391977;32;20221;-69
2021/05/11 14:41:14;;;;;;;17.03;9.27;;;17.70;99.90;;;;;;4387472;32;20243;-68
2021/05/11 14:43:41;;;;;;;18.20;8.33;;;17.70;99.60;;;;;;4384893;32;20214;-67
2021/05/11 14:46:09;;;;;;;14.40;8.67;;;17.80;98.30;;;;;;4377223;32;20187;-67
2021/05/11 14:48:36;;;;;;;13.60;8.27;;;17.70;98.70;;;;;;4377769;32;20204;-68
2021/05/11 14:51:04;;;;;;;16.03;7.53;;;17.80;98.00;;;;;;4378462;32;20600;-69
2021/05/11 14:53:31;;;;;;;10.60;7.20;;;17.90;98.60;;;;;;4373827;32;20182;-68
2021/05/11 14:55:58;;;;;;;15.00;7.47;;;17.90;97.70;;;;;;4374399;32;20172;-67
2021/05/11 14:58:25;;;;;;;11.50;6.27;;;18.00;97.60;;;;;;4378805;32;20672;-67
2021/05/11 15:00:52;;;;;;;13.73;6.50;;;18.10;97.90;;;;;;4377029;32;20157;-69
2021/05/11 15:03:18;;;;;;;10.77;6.40;;;18.30;97.40;;;;;;4378537;32;20171;-68
2021/05/11 15:05:44;;;;;;;11.77;6.67;;;18.50;96.30;;;;;;4377257;32;20156;-68
2021/05/11 15:08:11;;;;;;;10.60;6.97;;;18.60;96.10;;;;;;4378323;32;20148;-67
2021/05/11 15:10:38;;;;;;;14.90;7.40;;;18.70;96.10;;;;;;4378658;32;20171;-67
2021/05/11 15:13:05;;;;;;;14.43;8.47;;;19.00;96.20;;;;;;4386733;32;20223;-68
2021/05/11 15:15:36;;;;;;;11.67;8.80;;;19.10;95.70;;;;;;4392365;32;20209;-67
2021/05/11 15:18:05;;;;;;;18.13;10.03;;;18.90;95.60;;;;;;4392790;32;20678;-68
2021/05/11 15:20:35;;;;;;;13.87;10.07;;;18.80;96.90;;;;;;4391233;32;20199;-68
2021/05/11 15:23:14;;;;;;;11.77;8.80;;;19.30;96.50;;;;;;4388985;32;20504;-67
2021/05/11 15:25:40;;;;;;;14.07;8.83;;;19.10;94.70;;;;;;4393152;32;20144;-66
2021/05/11 15:28:06;;;;;;;12.30;7.77;;;18.70;94.70;;;;;;4390466;32;20263;-68
2021/05/11 15:30:35;;;;;;;12.20;8.07;;;18.10;95.10;;;;;;4384423;32;20221;-68
2021/05/11 15:33:04;;;;;;;15.30;8.17;;;17.90;96.00;;;;;;4384887;32;20156;-68
2021/05/11 15:35:33;;;;;;;12.23;8.07;;;17.70;96.30;;;;;;4391525;32;20152;-69
2021/05/11 15:38:01;;;;;;;12.57;8.57;;;17.70;96.60;;;;;;4392058;32;20514;-68
2021/05/11 15:40:30;;;;;;;12.90;8.57;;;17.60;96.90;;;;;;4391031;32;20209;-68
2021/05/11 15:42:57;;;;;;;18.53;7.83;;;17.60;96.50;;;;;;4389368;32;20201;-67
2021/05/11 15:45:24;;;;;;;11.07;8.03;;;17.50;96.90;;;;;;4391435;32;20592;-67
2021/05/11 15:47:55;;;;;;;16.10;8.47;;;17.30;96.60;;;;;;4378973;32;20206;-68
2021/05/11 15:50:27;;;;;;;12.83;7.87;;;17.30;97.30;;;;;;4375562;32;20156;-66
2021/05/11 15:53:08;;;;;;;15.87;8.67;;;17.50;97.20;;;;;;4372344;32;20199;-66
2021/05/11 15:55:37;;;;;;;12.97;6.83;;;17.60;96.40;;;;;;4378794;32;20286;-66
2021/05/11 15:58:10;;;;;;;10.73;7.03;;;17.70;96.50;;;;;;4380146;32;20160;-67
2021/05/11 16:00:37;;;;;;;12.50;6.70;;;17.90;96.00;;;;;;4379166;32;20175;-67
2021/05/11 16:03:06;;;;;;;13.03;7.60;;;18.00;95.10;;;;;;4382695;32;20191;-67
2021/05/11 16:05:38;;;;;;;11.27;6.57;;;18.20;95.70;;;;;;4383046;32;20165;-67
2021/05/11 16:08:14;;;;;;;10.90;6.73;;;18.40;94.90;;;;;;4376908;32;20199;-67
2021/05/11 16:10:48;;;;;;;12.57;6.40;;;18.60;94.60;;;;;;4372956;32;20152;-67